Time;durP1;ratioP1;P1;durP2;ratioP2;P2;SDS_P1;SDS_P2;PMS_P1;PMS_P2;Temp;Humidity;BMP_temperature;BMP_pressure;BME280_temperature;BME280_humidity;BME280_pressure;Samples;Min_cycle;Max_cycle;Signal;HPM_P1;HPM_P2
2023/03/25 00:02:20;;;;;;;17.05;3.47;;;;;;;-146.27;92.95;83774.53;5078266;28;20029;-68
2023/03/25 00:04:50;;;;;;;13.68;2.53;;;;;;;-146.27;92.81;83802.66;5086479;28;20113;-68
2023/03/25 00:07:17;;;;;;;19.77;2.75;;;;;;;-146.27;92.95;83774.53;5083012;28;20384;-67
2023/03/25 00:09:43;;;;;;;16.15;2.13;;;;;;;-146.27;92.83;83782.56;5085977;28;20102;-69
2023/03/25 00:12:08;;;;;;;12.45;1.92;;;;;;;-146.27;93.11;83740.34;5094950;28;20109;-68
2023/03/25 00:14:33;;;;;;;22.77;3.53;;;;;;;-146.27;92.86;83764.47;5085192;28;20028;-66
2023/03/25 00:17:00;;;;;;;20.73;3.20;;;;;;;-146.27;93.40;83796.63;5087733;28;20024;-69
2023/03/25 00:19:26;;;;;;;20.30;2.97;;;;;;;-146.27;93.40;83788.59;5087009;28;20020;-69
2023/03/25 00:21:52;;;;;;;15.98;2.45;;;;;;;-146.27;93.65;83768.50;5092403;28;20020;-68
2023/03/25 00:24:18;;;;;;;18.58;2.60;;;;;;;-146.27;93.19;83788.59;5083280;28;20043;-68
2023/03/25 00:26:45;;;;;;;21.73;3.08;;;;;;;-146.27;92.58;83760.44;5095131;28;20024;-66
2023/03/25 00:29:12;;;;;;;16.15;2.47;;;;;;;-146.27;92.87;83782.56;5086764;28;20122;-68
2023/03/25 00:31:38;;;;;;;15.60;2.13;;;;;;;-146.27;93.33;83776.53;5083306;28;20043;-68
2023/03/25 00:34:04;;;;;;;6.55;1.67;;;;;;;-146.27;93.69;83806.66;5087793;28;20115;-66
2023/03/25 00:36:29;;;;;;;14.85;2.53;;;;;;;-146.27;93.67;83770.50;5082938;28;20059;-67
2023/03/25 00:38:55;;;;;;;23.50;3.35;;;;;;;-146.27;93.68;83794.63;5092592;28;20028;-68
2023/03/25 00:41:26;;;;;;;11.77;2.45;;;;;;;-146.27;93.68;83774.53;5076158;28;20074;-67
2023/03/25 00:43:56;;;;;;;17.52;2.95;;;;;;;-146.27;94.24;83788.59;5079013;28;20024;-68
2023/03/25 00:46:25;;;;;;;16.42;2.33;;;;;;;-146.27;94.24;83784.56;5083612;28;20032;-67
2023/03/25 00:48:51;;;;;;;24.58;4.68;;;;;;;-146.27;94.29;83816.72;5087385;28;20107;-67
2023/03/25 00:51:20;;;;;;;24.20;3.78;;;;;;;-146.27;94.86;83842.84;5093895;28;20532;-67
2023/03/25 00:53:51;;;;;;;22.83;3.13;;;;;;;-146.27;94.55;83778.53;5078715;28;20032;-68
2023/03/25 00:56:17;;;;;;;27.02;2.60;;;;;;;-146.27;94.67;83784.56;5093210;28;20114;-67
2023/03/25 00:58:43;;;;;;;22.00;3.15;;;;;;;-146.27;94.76;83794.63;5077459;28;20120;-68
2023/03/25 01:01:14;;;;;;;10.00;2.10;;;;;;;-146.27;95.72;83804.66;5084739;28;20039;-68
2023/03/25 01:03:39;;;;;;;25.40;2.95;;;;;;;-146.27;96.45;83796.63;5094914;28;20055;-69
2023/03/25 01:06:10;;;;;;;14.90;2.80;;;;;;;-146.27;97.17;83798.63;5078013;28;20396;-70
2023/03/25 01:08:36;;;;;;;22.52;2.53;;;;;;;-146.27;99.62;83800.63;5076301;28;20044;-68
2023/03/25 01:11:02;;;;;;;17.65;2.65;;;;;;;-146.27;100.00;83818.72;5084793;28;20456;-66
2023/03/25 01:13:28;;;;;;;17.95;3.30;;;;;;;-146.27;100.00;83812.69;5085283;28;20449;-68
2023/03/25 01:15:53;;;;;;;14.65;2.35;;;;;;;-146.27;100.00;83858.91;5087443;28;20028;-67
2023/03/25 01:18:19;;;;;;;13.25;2.30;;;;;;;-146.27;100.00;83887.06;5093120;28;20097;-67
2023/03/25 01:20:44;;;;;;;18.05;2.05;;;;;;;-146.27;100.00;83866.97;5091830;28;20164;-68
2023/03/25 01:23:10;;;;;;;21.00;2.90;;;;;;;-146.27;100.00;83923.22;5090879;28;20494;-67
2023/03/25 01:25:36;;;;;;;24.80;2.28;;;;;;;-146.27;100.00;83943.31;5082221;28;20050;-67
2023/03/25 01:28:03;;;;;;;21.17;2.22;;;;;;;-146.27;100.00;83935.28;5084380;28;20027;-67
2023/03/25 01:30:28;;;;;;;14.20;2.80;;;;;;;-146.27;100.00;83955.38;5084292;28;20099;-67
2023/03/25 01:32:53;;;;;;;16.50;2.90;;;;;;;-146.27;100.00;83951.34;5088081;28;20383;-67
2023/03/25 01:35:19;;;;;;;22.88;3.05;;;;;;;-146.27;100.00;83987.53;5082789;28;20499;-67
2023/03/25 01:37:45;;;;;;;20.60;2.63;;;;;;;-146.27;100.00;83935.28;5089496;28;20108;-67
2023/03/25 01:40:18;;;;;;;16.88;3.65;;;;;;;-146.27;100.00;83931.25;5090210;28;20085;-67
2023/03/25 01:42:43;;;;;;;21.57;3.53;;;;;;;-146.27;100.00;83931.25;5082365;28;20055;-66
2023/03/25 01:45:20;;;;;;;34.80;3.38;;;;;;;-146.27;100.00;83915.19;5081517;28;20420;-66
2023/03/25 01:47:48;;;;;;;21.77;3.53;;;;;;;-146.27;100.00;83939.31;5083219;28;20024;-67
2023/03/25 01:50:14;;;;;;;14.35;1.90;;;;;;;-146.27;100.00;83895.09;5085438;28;20443;-67
2023/03/25 01:52:44;;;;;;;24.20;3.38;;;;;;;-146.27;100.00;83929.25;5089845;28;20031;-67
2023/03/25 01:55:10;;;;;;;23.52;2.72;;;;;;;-146.27;100.00;83941.31;5086085;28;20028;-66
2023/03/25 01:57:42;;;;;;;17.80;3.47;;;;;;;-146.27;100.00;83907.16;5075920;28;20028;-67
2023/03/25 02:00:09;;;;;;;24.00;3.33;;;;;;;-146.27;100.00;83895.09;5089129;28;20093;-66
2023/03/25 02:02:35;;;;;;;24.48;2.55;;;;;;;-146.27;100.00;83923.22;5088075;28;20024;-68
2023/03/25 02:05:09;;;;;;;20.75;3.10;;;;;;;-146.27;100.00;83881.03;5091829;28;20031;-67
2023/03/25 02:07:41;;;;;;;18.88;3.00;;;;;;;-146.27;100.00;83939.31;5087694;28;20083;-68
2023/03/25 02:10:08;;;;;;;20.63;3.17;;;;;;;-146.27;100.00;83903.13;5086505;28;20075;-67
2023/03/25 02:12:34;;;;;;;15.73;3.20;;;;;;;-146.27;100.00;83909.16;5083487;28;20060;-67
2023/03/25 02:15:02;;;;;;;25.05;3.45;;;;;;;-146.27;100.00;83891.06;5085631;28;20110;-67
2023/03/25 02:17:36;;;;;;;27.40;3.58;;;;;;;-146.27;100.00;83870.97;5085080;28;20077;-68
2023/03/25 02:20:34;;;;;;;24.23;3.53;;;;;;;-146.27;100.00;83887.06;5086414;28;20119;-69
2023/03/25 02:23:27;;;;;;;18.58;2.78;;;;;;;-146.27;100.00;83788.59;5078892;28;20055;-68
2023/03/25 02:26:10;;;;;;;27.35;3.42;;;;;;;-146.27;100.00;83875.00;5088932;28;20032;-67
2023/03/25 02:28:46;;;;;;;23.00;3.08;;;;;;;-146.27;100.00;83802.66;5090421;28;20339;-68
2023/03/25 02:31:32;;;;;;;15.07;2.17;;;;;;;-146.27;100.00;83875.00;5078018;28;20556;-67
2023/03/25 02:34:15;;;;;;;30.02;4.10;;;;;;;-146.27;100.00;83840.84;5082580;28;20043;-67
2023/03/25 02:37:05;;;;;;;28.30;3.63;;;;;;;-146.27;100.00;83883.03;5076587;28;20036;-67
2023/03/25 02:39:51;;;;;;;16.20;3.20;;;;;;;-146.27;100.00;83830.78;5073382;28;20115;-67
2023/03/25 02:42:33;;;;;;;30.35;4.38;;;;;;;-146.27;100.00;83866.97;5080944;28;20039;-68
2023/03/25 02:45:10;;;;;;;31.50;4.57;;;;;;;-146.27;100.00;83866.97;5078553;28;20103;-68
2023/03/25 02:47:44;;;;;;;37.50;4.65;;;;;;;-146.27;100.00;83862.94;5083805;28;20032;-67
2023/03/25 02:50:19;;;;;;;23.10;2.92;;;;;;;-146.27;100.00;83854.91;5078667;28;20503;-68
2023/03/25 02:52:49;;;;;;;28.02;3.03;;;;;;;-146.27;100.00;83832.78;5077255;28;20534;-68
2023/03/25 02:55:19;;;;;;;30.55;3.33;;;;;;;-146.27;100.00;83838.81;5086848;28;20038;-67
2023/03/25 02:57:48;;;;;;;16.25;3.10;;;;;;;-146.27;100.00;83852.88;5082721;28;20496;-67
2023/03/25 03:00:17;;;;;;;21.00;3.15;;;;;;;-146.27;100.00;83842.84;5088217;28;20024;-67
2023/03/25 03:02:49;;;;;;;23.85;3.72;;;;;;;-146.27;100.00;83842.84;5077989;28;20027;-68
2023/03/25 03:05:29;;;;;;;30.17;3.75;;;;;;;-146.27;100.00;83842.84;5073510;28;20039;-68
2023/03/25 03:08:13;;;;;;;26.83;3.63;;;;;;;-146.27;100.00;83850.88;5080044;28;20391;-67
2023/03/25 03:10:45;;;;;;;23.23;3.13;;;;;;;-146.27;100.00;83856.91;5085215;28;20020;-67
2023/03/25 03:13:27;;;;;;;21.15;3.75;;;;;;;-146.27;100.00;83816.72;5090552;28;20027;-68
2023/03/25 03:15:59;;;;;;;22.52;3.97;;;;;;;-146.27;100.00;83798.63;5086765;28;20142;-67
2023/03/25 03:18:41;;;;;;;30.27;4.82;;;;;;;-146.27;100.00;83854.91;5080281;28;20039;-68
2023/03/25 03:21:28;;;;;;;20.05;2.47;;;;;;;-146.27;100.00;83814.72;5077165;28;20453;-68
2023/03/25 03:24:09;;;;;;;21.35;3.15;;;;;;;-146.27;100.00;83842.84;5076878;28;20024;-66
2023/03/25 03:26:45;;;;;;;17.15;2.53;;;;;;;-146.27;100.00;83879.00;5086524;28;20055;-67
2023/03/25 03:29:18;;;;;;;18.95;3.25;;;;;;;-146.27;100.00;83915.19;5082706;28;20027;-67
2023/03/25 03:31:58;;;;;;;15.07;3.22;;;;;;;-146.27;100.00;83907.16;5088590;28;20031;-68
2023/03/25 03:34:43;;;;;;;33.25;3.67;;;;;;;-146.27;100.00;83913.19;5078484;28;20058;-68
2023/03/25 03:37:14;;;;;;;35.10;3.65;;;;;;;-146.27;100.00;83939.31;5086865;28;20024;-68
2023/03/25 03:39:41;;;;;;;28.50;3.83;;;;;;;-146.27;100.00;83971.47;5078479;28;20032;-68
2023/03/25 03:42:13;;;;;;;32.53;4.20;;;;;;;-146.27;100.00;83943.31;5091244;28;20084;-68
2023/03/25 03:44:41;;;;;;;24.45;3.38;;;;;;;-146.27;100.00;83909.16;5077339;28;20024;-68
2023/03/25 03:47:14;;;;;;;27.58;4.10;;;;;;;-146.27;100.00;83939.31;5078300;28;20051;-68
2023/03/25 03:49:46;;;;;;;26.77;3.67;;;;;;;-146.27;100.00;83911.16;5077148;28;20050;-67
2023/03/25 03:52:24;;;;;;;29.40;4.10;;;;;;;-146.27;100.00;83921.22;5076989;28;20051;-67
2023/03/25 03:55:13;;;;;;;24.27;3.53;;;;;;;-146.27;100.00;83923.22;5090200;28;20051;-67
2023/03/25 03:57:48;;;;;;;29.42;3.83;;;;;;;-146.27;100.00;83971.47;5080876;28;20091;-68
2023/03/25 04:00:19;;;;;;;35.30;4.47;;;;;;;-146.27;100.00;83975.47;5089700;28;20770;-68
2023/03/25 04:03:22;;;;;;;34.00;4.00;;;;;;;-146.27;100.00;83943.31;5086978;28;20448;-68
2023/03/25 04:05:55;;;;;;;35.35;4.75;;;;;;;-146.27;100.00;84009.63;5078172;28;20377;-67
2023/03/25 04:08:35;;;;;;;33.17;3.30;;;;;;;-146.27;100.00;83951.34;5079209;28;20076;-68
2023/03/25 04:11:07;;;;;;;31.15;4.03;;;;;;;-146.27;100.00;83967.44;5087144;28;20028;-68
2023/03/25 04:13:37;;;;;;;30.70;4.15;;;;;;;-146.27;100.00;83963.41;5074851;28;20020;-67
2023/03/25 04:16:03;;;;;;;23.42;3.88;;;;;;;-146.27;100.00;83995.56;5074001;28;20025;-67
2023/03/25 04:18:32;;;;;;;32.85;3.75;;;;;;;-146.27;100.00;83971.47;5082438;28;20093;-68
2023/03/25 04:20:58;;;;;;;30.63;4.22;;;;;;;-146.27;100.00;83943.31;5086833;28;20024;-68
2023/03/25 04:23:23;;;;;;;26.27;4.30;;;;;;;-146.27;100.00;83979.50;5087462;28;21752;-67
2023/03/25 04:25:51;;;;;;;27.25;3.13;;;;;;;-146.27;100.00;83951.34;5090563;28;20052;-68
2023/03/25 04:28:18;;;;;;;32.58;3.95;;;;;;;-146.27;100.00;83961.41;5085769;28;20068;-68
2023/03/25 04:30:44;;;;;;;22.75;4.00;;;;;;;-146.27;100.00;83961.41;5080414;28;20028;-67
2023/03/25 04:33:10;;;;;;;22.83;4.25;;;;;;;-146.27;100.00;83947.34;5084476;28;20025;-68
2023/03/25 04:35:36;;;;;;;30.90;4.30;;;;;;;-146.27;100.00;83937.28;5077701;28;20032;-68
2023/03/25 04:38:02;;;;;;;26.33;3.92;;;;;;;-146.27;100.00;83945.31;5085855;28;20032;-67
2023/03/25 04:40:28;;;;;;;29.70;4.43;;;;;;;-146.27;100.00;83935.28;5084995;28;20025;-68
2023/03/25 04:42:55;;;;;;;31.75;5.03;;;;;;;-146.27;100.00;83947.34;5082294;28;20039;-67
2023/03/25 04:45:21;;;;;;;36.42;4.68;;;;;;;-146.27;100.00;83921.22;5080264;28;20033;-67
2023/03/25 04:47:48;;;;;;;22.88;3.85;;;;;;;-146.27;100.00;83943.31;5083512;28;20360;-67
2023/03/25 04:50:21;;;;;;;45.05;4.38;;;;;;;-146.27;100.00;83947.34;5079310;28;20409;-69
2023/03/25 04:52:48;;;;;;;28.25;4.03;;;;;;;-146.27;100.00;83927.25;5090969;28;20020;-67
2023/03/25 04:55:19;;;;;;;32.15;5.50;;;;;;;-146.27;100.00;83915.19;5091738;28;20071;-68
2023/03/25 04:57:46;;;;;;;39.55;3.80;;;;;;;-146.27;100.00;83915.19;5092994;28;20353;-69
2023/03/25 05:00:13;;;;;;;31.27;4.28;;;;;;;-146.27;100.00;83915.19;5081788;28;20023;-67
2023/03/25 05:02:44;;;;;;;35.85;4.22;;;;;;;-146.27;100.00;83955.38;5076361;28;20036;-67
2023/03/25 05:05:17;;;;;;;27.48;3.80;;;;;;;-146.27;100.00;83957.38;5090870;28;20516;-67
2023/03/25 05:07:48;;;;;;;26.90;4.20;;;;;;;-146.27;100.00;83919.19;5081026;28;20036;-67
2023/03/25 05:10:14;;;;;;;23.00;3.63;;;;;;;-146.27;100.00;83961.41;5092882;28;20388;-67
2023/03/25 05:12:39;;;;;;;41.17;4.90;;;;;;;-146.27;100.00;83935.28;5091283;28;20047;-68
2023/03/25 05:15:06;;;;;;;41.75;4.07;;;;;;;-146.27;100.00;83929.25;5087284;28;20484;-67
2023/03/25 05:17:31;;;;;;;42.15;4.07;;;;;;;-146.27;100.00;83949.34;5089821;28;20035;-68
2023/03/25 05:19:57;;;;;;;32.03;4.15;;;;;;;-146.27;100.00;83943.31;5081327;28;20033;-68
2023/03/25 05:22:22;;;;;;;25.00;3.72;;;;;;;-146.27;100.00;83957.38;5087428;28;20031;-68
2023/03/25 05:24:47;;;;;;;27.90;4.63;;;;;;;-146.27;100.00;83969.44;5086956;28;20020;-68
2023/03/25 05:27:13;;;;;;;43.17;4.32;;;;;;;-146.27;100.00;83931.25;5089565;28;20381;-68
2023/03/25 05:29:38;;;;;;;30.05;4.57;;;;;;;-146.27;100.00;83945.31;5092912;28;20031;-67
2023/03/25 05:32:04;;;;;;;28.80;3.88;;;;;;;-146.27;100.00;83963.41;5087667;28;20103;-68
2023/03/25 05:34:30;;;;;;;33.17;4.03;;;;;;;-146.27;100.00;83951.34;5085338;28;20057;-68
2023/03/25 05:36:55;;;;;;;25.30;3.60;;;;;;;-146.27;100.00;83937.28;5092169;28;20086;-68
2023/03/25 05:39:21;;;;;;;17.30;3.25;;;;;;;-146.27;100.00;83941.31;5080508;28;20441;-67
2023/03/25 05:41:47;;;;;;;17.05;3.25;;;;;;;-146.27;100.00;83955.38;5090008;28;20027;-68
2023/03/25 05:44:17;;;;;;;23.40;3.20;;;;;;;-146.27;100.00;83963.41;5093525;28;20472;-68
2023/03/25 05:46:43;;;;;;;26.88;3.60;;;;;;;-146.27;100.00;83999.59;5092938;28;20046;-66
2023/03/25 05:49:08;;;;;;;35.10;3.83;;;;;;;-146.27;100.00;84043.81;5090010;28;20136;-67
2023/03/25 05:51:36;;;;;;;29.30;4.88;;;;;;;-146.27;100.00;84007.63;5081498;28;20028;-67
2023/03/25 05:54:02;;;;;;;21.00;3.50;;;;;;;-146.27;100.00;84023.69;5074410;28;20101;-67
2023/03/25 05:56:28;;;;;;;32.70;4.15;;;;;;;-146.27;100.00;84063.91;5085732;28;20036;-67
2023/03/25 05:58:55;;;;;;;20.67;3.00;;;;;;;-146.27;100.00;83999.59;5087924;28;20039;-67
2023/03/25 06:01:21;;;;;;;26.60;2.63;;;;;;;-146.27;100.00;84027.72;5074242;28;20112;-67
2023/03/25 06:03:47;;;;;;;27.75;4.57;;;;;;;-146.27;100.00;84043.81;5079631;28;20103;-68
2023/03/25 06:06:13;;;;;;;38.75;4.65;;;;;;;-146.27;100.00;84051.84;5087012;28;20054;-68
2023/03/25 06:08:40;;;;;;;27.35;3.63;;;;;;;-146.27;100.00;84061.88;5080509;28;20123;-66
2023/03/25 06:11:12;;;;;;;22.02;3.10;;;;;;;-146.27;100.00;84055.84;5091521;28;20028;-68
2023/03/25 06:13:38;;;;;;;28.02;5.18;;;;;;;-146.27;100.00;84011.66;5093041;28;20483;-68
2023/03/25 06:16:05;;;;;;;35.05;4.32;;;;;;;-146.27;100.00;84047.81;5087400;28;20070;-67
2023/03/25 06:18:31;;;;;;;32.47;4.32;;;;;;;-146.27;100.00;84029.72;5088785;28;20505;-67
2023/03/25 06:20:57;;;;;;;32.33;3.45;;;;;;;-146.27;100.00;84033.75;5088465;28;20485;-68
2023/03/25 06:23:25;;;;;;;22.75;3.38;;;;;;;-146.27;100.00;84029.72;5089432;28;20076;-67
2023/03/25 06:25:51;;;;;;;40.15;3.58;;;;;;;-146.27;100.00;84011.66;5077259;28;20027;-68
2023/03/25 06:28:17;;;;;;;32.25;3.22;;;;;;;-146.27;100.00;84001.59;5084507;28;20051;-67
2023/03/25 06:30:47;;;;;;;25.92;3.10;;;;;;;-146.27;100.00;83995.56;5077721;28;20425;-68
2023/03/25 06:33:14;;;;;;;29.48;3.22;;;;;;;-146.27;100.00;83953.38;5073128;28;20476;-67
2023/03/25 06:35:42;;;;;;;23.23;3.60;;;;;;;-146.27;100.00;84011.66;5079803;28;20040;-67
2023/03/25 06:38:09;;;;;;;25.92;3.42;;;;;;;-146.27;100.00;83961.41;5079791;28;20386;-67
2023/03/25 06:40:37;;;;;;;28.90;3.58;;;;;;;-146.27;100.00;83965.44;5079507;28;20031;-68
2023/03/25 06:43:06;;;;;;;27.60;3.20;;;;;;;-146.27;100.00;83965.44;5079542;28;20024;-68
2023/03/25 06:45:32;;;;;;;25.52;4.38;;;;;;;-146.27;100.00;83967.44;5081120;28;20028;-68
2023/03/25 06:47:58;;;;;;;25.95;3.40;;;;;;;-146.27;100.00;83913.19;5089520;28;20028;-68
2023/03/25 06:50:24;;;;;;;23.05;3.10;;;;;;;-146.27;100.00;83927.25;5087637;28;20024;-67
2023/03/25 06:52:49;;;;;;;30.73;5.18;;;;;;;-146.27;100.00;83939.31;5089501;28;20027;-67
2023/03/25 06:55:15;;;;;;;29.25;4.68;;;;;;;-146.27;100.00;83911.16;5075213;28;20077;-67
2023/03/25 06:57:42;;;;;;;32.42;4.97;;;;;;;-146.27;100.00;83923.22;5077316;28;20554;-68
2023/03/25 07:00:10;;;;;;;19.63;3.45;;;;;;;-146.27;100.00;83935.28;5091558;28;20373;-68
2023/03/25 07:02:36;;;;;;;23.38;5.68;;;;;;;-146.27;100.00;83903.13;5087698;28;20119;-67
2023/03/25 07:05:02;;;;;;;24.27;3.53;;;;;;;-146.27;100.00;83955.38;5081155;28;20119;-67
2023/03/25 07:07:28;;;;;;;27.55;3.00;;;;;;;-146.27;100.00;83947.34;5083404;28;20151;-67
2023/03/25 07:09:54;;;;;;;27.90;3.33;;;;;;;-146.27;100.00;83901.13;5085368;28;20020;-67
2023/03/25 07:12:23;;;;;;;23.33;3.35;;;;;;;-146.27;100.00;83907.16;5087037;28;20028;-68
2023/03/25 07:14:53;;;;;;;20.35;3.00;;;;;;;-146.27;100.00;83883.03;5087490;28;20024;-68
2023/03/25 07:17:19;;;;;;;16.52;2.78;;;;;;;-146.27;100.00;83893.06;5078920;28;20028;-68
2023/03/25 07:19:45;;;;;;;25.33;3.10;;;;;;;-146.27;100.00;83919.19;5088018;28;20024;-68
2023/03/25 07:22:10;;;;;;;27.90;4.75;;;;;;;-146.27;100.00;83868.97;5087855;28;20024;-68
2023/03/25 07:24:36;;;;;;;11.13;2.15;;;;;;;-146.27;100.00;83870.97;5083862;28;20076;-68
2023/03/25 07:27:01;;;;;;;22.50;3.75;;;;;;;-146.27;100.00;83814.72;5091486;28;20026;-68
2023/03/25 07:29:27;;;;;;;25.27;3.40;;;;;;;-146.27;100.00;83887.06;5092123;28;20012;-68
2023/03/25 07:31:52;;;;;;;30.95;5.20;;;;;;;-146.27;100.00;83856.91;5078893;28;20045;-68
2023/03/25 07:34:18;;;;;;;16.80;3.17;;;;;;;-146.27;100.00;83872.97;5080631;28;20031;-68
2023/03/25 07:36:43;;;;;;;24.17;2.88;;;;;;;-146.27;100.00;83858.91;5091345;28;20059;-69
2023/03/25 07:39:08;;;;;;;24.85;3.10;;;;;;;-146.27;100.00;83860.94;5081586;28;20233;-68
2023/03/25 07:41:34;;;;;;;25.88;3.72;;;;;;;-146.27;100.00;83838.81;5080963;28;20020;-73
2023/03/25 07:43:59;;;;;;;20.05;2.78;;;;;;;-146.27;100.00;83794.63;5084260;28;20034;-68
2023/03/25 07:46:25;;;;;;;17.33;3.53;;;;;;;-146.27;100.00;83822.75;5081358;28;20023;-67
2023/03/25 07:48:50;;;;;;;21.08;3.08;;;;;;;-146.27;100.00;83814.72;5080123;28;20472;-68
2023/03/25 07:51:16;;;;;;;27.63;3.22;;;;;;;-146.27;100.00;83840.84;5089868;28;20023;-67
2023/03/25 07:53:43;;;;;;;21.05;2.40;;;;;;;-146.27;100.00;83850.88;5086001;28;20275;-68
2023/03/25 07:56:10;;;;;;;31.38;3.20;;;;;;;-146.27;100.00;83846.84;5083785;28;20475;-67
2023/03/25 07:58:35;;;;;;;24.20;2.95;;;;;;;-146.27;100.00;83830.78;5084491;28;20230;-68
2023/03/25 08:01:01;;;;;;;20.08;3.33;;;;;;;-146.27;100.00;83828.78;5086898;28;20573;-67
2023/03/25 08:03:27;;;;;;;23.17;4.38;;;;;;;-146.27;100.00;83808.69;5089415;28;20111;-66
2023/03/25 08:05:53;;;;;;;22.88;3.47;;;;;;;-146.27;100.00;83808.69;5089737;28;20020;-68
2023/03/25 08:08:18;;;;;;;21.98;3.50;;;;;;;-146.27;100.00;83794.63;5085570;28;20395;-67
2023/03/25 08:10:46;;;;;;;23.92;3.83;;;;;;;-146.27;100.00;83786.56;5095935;28;20428;-67
2023/03/25 08:13:12;;;;;;;16.10;2.85;;;;;;;-146.27;100.00;83814.72;5089171;28;20062;-67
2023/03/25 08:15:38;;;;;;;32.55;4.63;;;;;;;-146.27;100.00;83774.53;5089090;28;20036;-68
2023/03/25 08:18:05;;;;;;;25.00;3.42;;;;;;;-146.27;100.00;83776.53;5084972;28;20468;-66
2023/03/25 08:20:32;;;;;;;24.55;3.85;;;;;;;-146.27;100.00;83762.47;5084728;28;20020;-66
2023/03/25 08:22:58;;;;;;;14.82;3.10;;;;;;;-146.27;100.00;83758.44;5095673;28;20032;-67
2023/03/25 08:25:24;;;;;;;20.85;2.58;;;;;;;-146.27;100.00;83768.50;5087044;28;20034;-67
2023/03/25 08:27:50;;;;;;;28.15;3.25;;;;;;;-146.27;100.00;83760.44;5093083;28;20024;-69
2023/03/25 08:30:16;;;;;;;20.38;2.75;;;;;;;-146.27;100.00;83764.47;5092883;28;20026;-68
2023/03/25 08:32:44;;;;;;;26.15;3.47;;;;;;;-146.27;100.00;83740.34;5090815;28;20031;-68
2023/03/25 08:35:11;;;;;;;18.13;3.20;;;;;;;-146.27;100.00;83764.47;5078824;28;20032;-67
2023/03/25 08:37:36;;;;;;;35.42;3.55;;;;;;;-146.27;100.00;83716.25;5078013;28;20023;-67
2023/03/25 08:40:08;;;;;;;26.95;3.42;;;;;;;-146.27;100.00;83706.19;5082070;28;20480;-68
2023/03/25 08:42:35;;;;;;;23.23;3.70;;;;;;;-146.27;100.00;83726.28;5084844;28;20032;-69
2023/03/25 08:45:01;;;;;;;18.75;3.30;;;;;;;-146.27;100.00;83720.25;5084544;28;20411;-69
2023/03/25 08:47:26;;;;;;;23.83;3.33;;;;;;;-146.27;100.00;83688.09;5083224;28;20039;-68
2023/03/25 08:49:52;;;;;;;24.30;2.85;;;;;;;-146.27;99.56;83662.00;5083473;28;20024;-68
2023/03/25 08:52:17;;;;;;;25.63;3.50;;;;;;;-146.27;99.47;83625.81;5085460;28;20024;-68
2023/03/25 08:54:42;;;;;;;28.00;2.92;;;;;;;-146.27;99.70;83680.06;5081603;28;20173;-67
2023/03/25 08:57:08;;;;;;;22.08;3.78;;;;;;;-146.27;99.34;83670.03;5079161;28;20068;-68
2023/03/25 08:59:35;;;;;;;22.55;3.85;;;;;;;-146.27;99.59;83696.16;5083040;28;20031;-68
2023/03/25 09:02:00;;;;;;;33.03;4.35;;;;;;;-146.27;100.00;83708.22;5082406;28;20025;-68
2023/03/25 09:04:26;;;;;;;27.52;3.75;;;;;;;-146.27;98.90;83672.03;5081379;28;20395;-68
2023/03/25 09:06:51;;;;;;;25.75;4.93;;;;;;;-146.27;99.51;83696.16;5090412;28;20024;-67
2023/03/25 09:09:17;;;;;;;22.33;3.85;;;;;;;-146.27;100.00;83702.19;5089386;28;20521;-67
2023/03/25 09:11:43;;;;;;;40.33;4.95;;;;;;;-146.27;100.00;83696.16;5078339;28;20024;-67
2023/03/25 09:14:09;;;;;;;28.20;5.07;;;;;;;-146.27;99.92;83645.91;5085299;28;20035;-67
2023/03/25 09:16:34;;;;;;;31.50;5.10;;;;;;;-146.27;99.83;83625.81;5087163;28;20077;-68
2023/03/25 09:19:01;;;;;;;31.60;4.10;;;;;;;-146.27;98.86;83591.66;5083900;28;20035;-68
2023/03/25 09:21:26;;;;;;;28.15;4.85;;;;;;;-146.27;99.24;83603.72;5080817;28;20463;-68
2023/03/25 09:23:51;;;;;;;30.02;4.35;;;;;;;-146.27;98.98;83645.91;5087559;28;20024;-68
2023/03/25 09:26:17;;;;;;;30.48;4.60;;;;;;;-146.27;98.61;83645.91;5091486;28;20085;-67
2023/03/25 09:28:43;;;;;;;24.80;3.45;;;;;;;-146.27;98.50;83657.97;5086253;28;20028;-67
2023/03/25 09:31:09;;;;;;;22.65;3.50;;;;;;;-146.27;98.77;83645.91;5084580;28;20024;-67
2023/03/25 09:33:35;;;;;;;24.45;3.45;;;;;;;-146.27;98.14;83591.66;5088240;28;20035;-66
2023/03/25 09:36:02;;;;;;;22.05;4.28;;;;;;;-146.27;97.36;83609.75;5077453;28;20126;-68
2023/03/25 09:38:28;;;;;;;27.13;4.80;;;;;;;-146.27;98.23;83597.69;5086218;28;20031;-67
2023/03/25 09:40:53;;;;;;;25.20;3.97;;;;;;;-146.27;97.37;83625.81;5092676;28;20410;-67
2023/03/25 09:43:34;;;;;;;25.92;3.47;;;;;;;-146.27;95.81;83662.00;5084722;28;20028;-67
2023/03/25 09:46:00;;;;;;;29.55;3.15;;;;;;;-146.27;95.98;83593.66;5084559;28;20128;-66
2023/03/25 09:48:37;;;;;;;26.73;3.63;;;;;;;-146.27;96.04;83597.69;5090926;28;20060;-67
2023/03/25 09:51:09;;;;;;;19.77;3.50;;;;;;;-146.27;94.94;83573.56;5079891;28;20028;-67
2023/03/25 09:53:45;;;;;;;25.52;3.55;;;;;;;-146.27;95.10;83565.53;5087855;28;20047;-67
2023/03/25 09:56:19;;;;;;;26.02;4.60;;;;;;;-146.27;94.38;83559.50;5092120;28;20028;-67
2023/03/25 09:58:51;;;;;;;21.88;4.15;;;;;;;-146.27;94.31;83549.47;5091636;28;20152;-66
2023/03/25 10:01:44;;;;;;;27.55;3.45;;;;;;;-146.27;94.49;83561.53;5080731;28;20039;-66
2023/03/25 10:04:18;;;;;;;33.42;4.18;;;;;;;-146.27;94.64;83489.19;5086642;28;20016;-67
2023/03/25 10:06:56;;;;;;;24.10;3.30;;;;;;;-146.27;92.68;83461.06;5092323;28;20108;-68
2023/03/25 10:09:33;;;;;;;22.52;4.05;;;;;;;-146.27;92.23;83521.34;5093013;28;20052;-67
2023/03/25 10:12:17;;;;;;;25.38;5.35;;;;;;;-146.27;92.95;83561.53;5091971;28;20023;-67
2023/03/25 10:14:54;;;;;;;;;;;;;;;-146.27;93.40;83547.44;5076000;28;20032;-68
2023/03/25 10:17:29;;;;;;;32.35;3.85;;;;;;;-146.27;93.78;83537.41;5072959;28;20335;-68
2023/03/25 10:20:11;;;;;;;38.58;4.22;;;;;;;-146.27;94.20;83555.50;5087371;28;20403;-69
2023/03/25 10:22:50;;;;;;;32.85;4.63;;;;;;;-146.27;94.43;83565.53;5085302;28;20360;-68
2023/03/25 10:25:22;;;;;;;26.77;4.10;;;;;;;-146.27;94.00;83551.47;5093054;28;20032;-69
2023/03/25 10:27:50;;;;;;;22.13;3.85;;;;;;;-146.27;93.50;83557.50;5092431;28;20039;-69
2023/03/25 10:30:29;;;;;;;25.42;3.95;;;;;;;-146.27;93.79;83495.22;5074191;28;20063;-68
2023/03/25 10:33:04;;;;;;;26.67;3.60;;;;;;;-146.27;92.71;83537.41;5074960;28;20085;-69
2023/03/25 10:35:38;;;;;;;25.80;4.10;;;;;;;-146.27;92.92;83557.50;5092977;28;20436;-68
2023/03/25 10:38:12;;;;;;;23.63;3.28;;;;;;;-146.27;92.89;83555.50;5087634;28;20024;-69
2023/03/25 10:40:43;;;;;;;30.80;3.92;;;;;;;-146.27;91.96;83533.38;5077317;28;20072;-68
2023/03/25 10:43:17;;;;;;;30.30;3.75;;;;;;;-146.27;91.69;83507.25;5083727;28;20039;-67
2023/03/25 10:45:45;;;;;;;20.33;3.03;;;;;;;-146.27;91.29;83505.25;5091649;28;20035;-67
2023/03/25 10:48:26;;;;;;;31.55;4.05;;;;;;;-146.27;91.65;83489.19;5090347;28;20051;-68
2023/03/25 10:51:03;;;;;;;29.58;4.13;;;;;;;-146.27;91.03;83593.66;5088415;28;20020;-68
2023/03/25 10:53:29;;;;;;;23.15;3.65;;;;;;;-146.27;90.72;83541.41;5089346;28;20483;-67
2023/03/25 10:56:02;;;;;;;28.98;3.90;;;;;;;-146.27;91.69;83521.34;5082841;28;20475;-68
2023/03/25 10:58:29;;;;;;;32.05;4.28;;;;;;;-146.27;91.44;83529.38;5082728;28;20065;-68
2023/03/25 11:00:55;;;;;;;25.17;3.60;;;;;;;-146.27;91.90;83487.16;5074330;28;20025;-67
2023/03/25 11:03:33;;;;;;;21.05;3.17;;;;;;;-146.27;90.99;83507.25;5081655;28;20032;-68
2023/03/25 11:05:58;;;;;;;26.95;3.90;;;;;;;-146.27;90.77;83473.09;5089098;28;20027;-67
2023/03/25 11:08:24;;;;;;;18.05;2.80;;;;;;;-146.27;89.85;83426.88;5080267;28;20051;-68
2023/03/25 11:10:55;;;;;;;16.45;3.92;;;;;;;-146.27;88.86;83412.81;5080787;28;20388;-68
2023/03/25 11:13:26;;;;;;;15.70;3.58;;;;;;;-146.27;88.21;83451.00;5078885;28;20024;-67
2023/03/25 11:16:01;;;;;;;24.30;3.20;;;;;;;-146.27;89.18;83428.91;5086444;28;20436;-67